Time;durP1;ratioP1;P1;durP2;ratioP2;P2;SDS_P1;SDS_P2;PMS_P1;PMS_P2;Temp;Humidity;BMP_temperature;BMP_pressure;BME280_temperature;BME280_humidity;BME280_pressure;Samples;Min_cycle;Max_cycle;Signal;HPM_P1;HPM_P2
2024/01/17 00:02:05;;;;;;;11.50;9.43;;;;;;;1.86;100.00;95303.00;5098875;28;20296;-58
2024/01/17 00:04:32;;;;;;;10.67;9.23;;;;;;;1.90;100.00;95304.41;5082097;28;20235;-58
2024/01/17 00:07:00;;;;;;;10.73;9.20;;;;;;;1.89;100.00;95314.00;5117814;27;20238;-60
2024/01/17 00:09:27;;;;;;;10.80;9.10;;;;;;;1.88;100.00;95304.53;5107123;28;20212;-58
2024/01/17 00:11:54;;;;;;;10.60;9.50;;;;;;;1.89;100.00;95307.97;5105428;28;20212;-58
2024/01/17 00:14:21;;;;;;;11.07;9.27;;;;;;;1.83;100.00;95311.06;5101408;28;20193;-57
2024/01/17 00:16:47;;;;;;;11.00;9.57;;;;;;;1.79;100.00;95318.31;5112490;27;20622;-57
2024/01/17 00:19:15;;;;;;;13.07;9.47;;;;;;;1.86;100.00;95310.81;5116868;27;20288;-57
2024/01/17 00:21:43;;;;;;;11.07;9.10;;;;;;;1.84;100.00;95308.31;5116784;28;20196;-58
2024/01/17 00:24:11;;;;;;;11.50;9.30;;;;;;;1.90;100.00;95304.41;5115126;28;20310;-57
2024/01/17 00:26:38;;;;;;;9.77;8.73;;;;;;;1.88;100.00;95306.31;5116987;28;20204;-58
2024/01/17 00:29:05;;;;;;;14.07;9.37;;;;;;;1.90;100.00;95304.41;5114115;28;20292;-56
2024/01/17 00:31:31;;;;;;;10.90;9.10;;;;;;;1.90;100.00;95300.03;5096966;28;20288;-58
2024/01/17 00:33:59;;;;;;;11.17;8.87;;;;;;;1.87;100.00;95287.25;5098280;28;20197;-58
2024/01/17 00:36:26;;;;;;;11.23;9.07;;;;;;;1.93;100.00;95265.91;5110227;28;20536;-57
2024/01/17 00:38:53;;;;;;;9.77;8.73;;;;;;;1.83;100.00;95265.00;5114943;28;20224;-58
2024/01/17 00:41:21;;;;;;;11.63;9.57;;;;;;;1.85;100.00;95262.25;5114408;28;20197;-58
2024/01/17 00:43:48;;;;;;;11.07;9.73;;;;;;;1.83;100.00;95249.38;5104792;28;20238;-58
2024/01/17 00:46:14;;;;;;;12.10;9.37;;;;;;;1.82;100.00;95247.69;5113818;28;20221;-56
2024/01/17 00:48:43;;;;;;;15.47;9.40;;;;;;;1.79;100.00;95232.31;5110815;28;20257;-58
2024/01/17 00:51:09;;;;;;;14.37;10.67;;;;;;;1.77;100.00;95236.81;5105778;28;20203;-58
2024/01/17 00:53:36;;;;;;;10.87;9.40;;;;;;;1.80;100.00;95241.78;5114908;28;20207;-58
2024/01/17 00:56:03;;;;;;;12.90;9.60;;;;;;;1.79;100.00;95229.72;5114047;28;20193;-57
2024/01/17 00:58:31;;;;;;;10.63;9.57;;;;;;;1.80;100.00;95218.34;5103829;28;20205;-58
2024/01/17 01:00:58;;;;;;;12.80;9.87;;;;;;;1.78;100.00;95220.22;5112200;28;20205;-58
2024/01/17 01:03:24;;;;;;;12.47;10.27;;;;;;;1.78;100.00;95212.41;5116505;28;20200;-57
2024/01/17 01:05:51;;;;;;;12.67;9.77;;;;;;;1.82;100.00;95205.16;5098018;28;20222;-57
2024/01/17 01:08:17;;;;;;;10.80;9.37;;;;;;;1.82;100.00;95208.59;5081219;28;20270;-58
2024/01/17 01:10:44;;;;;;;11.77;9.03;;;;;;;1.87;100.00;95203.84;5084814;28;20333;-57
2024/01/17 01:13:11;;;;;;;12.07;9.70;;;;;;;1.84;100.00;95198.88;5083623;28;20230;-58
2024/01/17 01:15:39;;;;;;;11.40;9.37;;;;;;;1.93;100.00;95203.34;5084517;28;20190;-58
2024/01/17 01:18:05;;;;;;;11.57;9.63;;;;;;;1.98;100.00;95205.59;5083746;28;20198;-58
2024/01/17 01:20:32;;;;;;;10.80;9.43;;;;;;;1.98;100.00;95185.53;5084891;28;20210;-57
2024/01/17 01:22:59;;;;;;;12.40;9.50;;;;;;;1.95;100.00;95180.56;5085531;28;20293;-58
2024/01/17 01:25:26;;;;;;;11.33;10.13;;;;;;;1.88;100.00;95176.81;5085925;28;20676;-59
2024/01/17 01:27:52;;;;;;;11.53;10.10;;;;;;;1.88;100.00;95189.84;5084091;28;20217;-58
2024/01/17 01:30:22;;;;;;;11.37;9.83;;;;;;;1.82;100.00;95195.56;5084389;28;20206;-58
2024/01/17 01:32:50;;;;;;;10.83;9.73;;;;;;;1.76;100.00;95185.66;5084543;28;20206;-58
2024/01/17 01:35:17;;;;;;;12.30;10.00;;;;;;;1.82;100.00;95182.53;5080697;28;20281;-59
2024/01/17 01:37:44;;;;;;;11.17;10.07;;;;;;;1.82;100.00;95182.53;5073294;28;20220;-58
2024/01/17 01:40:11;;;;;;;13.80;10.73;;;;;;;1.78;100.00;95181.13;5083146;28;20197;-58
2024/01/17 01:42:43;;;;;;;11.47;10.27;;;;;;;1.84;100.00;95201.47;5084484;28;20652;-58
2024/01/17 01:45:10;;;;;;;11.10;9.83;;;;;;;1.83;100.00;95189.41;5079650;28;20206;-58
2024/01/17 01:47:37;;;;;;;10.63;9.53;;;;;;;1.85;100.00;95195.31;5073063;28;20250;-58
2024/01/17 01:50:07;;;;;;;10.53;9.43;;;;;;;1.91;100.00;95202.63;5078535;28;20514;-58
2024/01/17 01:52:35;;;;;;;11.67;9.90;;;;;;;1.96;100.00;95192.66;5077944;28;20282;-59
2024/01/17 01:55:03;;;;;;;12.43;9.03;;;;;;;1.96;100.00;95202.25;5082491;28;20529;-57
2024/01/17 01:57:31;;;;;;;10.50;9.40;;;;;;;1.90;100.00;95202.78;5084714;28;20198;-58
2024/01/17 01:59:58;;;;;;;11.40;9.80;;;;;;;1.89;100.00;95207.16;5084410;28;20220;-58
2024/01/17 02:02:24;;;;;;;10.30;9.20;;;;;;;1.85;100.00;95205.75;5084102;28;20208;-58
2024/01/17 02:04:54;;;;;;;13.33;9.67;;;;;;;1.87;100.00;95211.69;5084766;28;20631;-56
2024/01/17 02:07:23;;;;;;;11.00;9.83;;;;;;;1.88;100.00;95209.88;5103214;28;20786;-57
2024/01/17 02:09:49;;;;;;;12.13;9.47;;;;;;;1.89;100.00;95201.94;5096942;28;20206;-58
2024/01/17 02:12:16;;;;;;;10.37;8.93;;;;;;;1.92;100.00;95200.84;5114405;28;20217;-59
2024/01/17 02:14:43;;;;;;;10.30;9.23;;;;;;;1.89;100.00;95196.72;5122412;28;20592;-58
2024/01/17 02:17:09;;;;;;;10.47;9.37;;;;;;;1.92;100.00;95195.63;5107071;28;20285;-58
2024/01/17 02:19:36;;;;;;;11.60;10.07;;;;;;;1.94;100.00;95197.19;5109697;28;20198;-58
2024/01/17 02:22:03;;;;;;;10.07;8.90;;;;;;;1.96;100.00;95187.44;5104330;28;20630;-58
2024/01/17 02:24:31;;;;;;;12.90;9.87;;;;;;;1.97;100.00;95188.28;5105848;28;20228;-58
2024/01/17 02:26:59;;;;;;;10.37;9.37;;;;;;;1.88;100.00;95195.06;5105731;28;20644;-57
2024/01/17 02:29:26;;;;;;;11.03;9.80;;;;;;;1.87;100.00;95188.22;5109285;28;20213;-56
2024/01/17 02:31:55;;;;;;;11.00;9.43;;;;;;;1.88;100.00;95184.63;5109020;28;20817;-57
2024/01/17 02:34:22;;;;;;;12.67;9.73;;;;;;;1.93;100.00;95173.84;5098572;28;20255;-59
2024/01/17 02:36:48;;;;;;;12.13;10.53;;;;;;;1.84;100.00;95162.38;5096694;28;20209;-56
2024/01/17 02:39:15;;;;;;;13.47;10.13;;;;;;;1.86;100.00;95163.09;5100043;28;20216;-58
2024/01/17 02:41:43;;;;;;;14.53;10.43;;;;;;;1.83;100.00;95150.34;5103894;28;20209;-57
2024/01/17 02:44:10;;;;;;;13.37;10.30;;;;;;;1.81;100.00;95154.81;5103320;28;20673;-59
2024/01/17 02:46:36;;;;;;;11.83;10.40;;;;;;;1.80;100.00;95149.75;5094908;28;20894;-58
2024/01/17 02:49:03;;;;;;;11.80;10.60;;;;;;;1.80;100.00;95150.59;5095461;28;20292;-58
2024/01/17 02:51:31;;;;;;;11.83;10.20;;;;;;;1.77;100.00;95161.22;5098573;28;20202;-58
2024/01/17 02:53:58;;;;;;;12.70;10.57;;;;;;;1.81;100.00;95144.41;5099179;28;20220;-56
2024/01/17 02:56:24;;;;;;;14.17;10.73;;;;;;;1.84;100.00;95143.34;5104500;28;20201;-58
2024/01/17 02:58:52;;;;;;;15.43;11.43;;;;;;;1.88;100.00;95139.50;5098396;28;20640;-58
2024/01/17 03:01:19;;;;;;;13.33;11.00;;;;;;;1.90;100.00;95140.22;5101579;28;20216;-57
2024/01/17 03:03:45;;;;;;;13.57;10.77;;;;;;;1.83;100.00;95142.50;5100522;28;20209;-58
2024/01/17 03:06:12;;;;;;;13.13;10.37;;;;;;;1.86;100.00;95137.03;5103938;28;20232;-58
2024/01/17 03:08:41;;;;;;;13.20;10.60;;;;;;;1.85;100.00;95132.78;5102645;28;20336;-56
2024/01/17 03:11:08;;;;;;;12.30;11.00;;;;;;;1.77;100.00;95119.53;5103059;28;20202;-58
2024/01/17 03:13:34;;;;;;;15.13;11.43;;;;;;;1.77;100.00;95109.13;5096566;28;20220;-58
2024/01/17 03:16:03;;;;;;;16.37;12.47;;;;;;;1.72;100.00;95105.25;5097054;28;20293;-58
2024/01/17 03:18:32;;;;;;;12.47;11.17;;;;;;;1.79;100.00;95117.66;5101703;28;20198;-58
2024/01/17 03:20:59;;;;;;;16.30;12.60;;;;;;;1.73;100.00;95107.75;5096342;28;20210;-58
2024/01/17 03:23:25;;;;;;;15.10;12.13;;;;;;;1.73;100.00;95102.53;5103018;28;20213;-56
2024/01/17 03:25:54;;;;;;;15.63;12.40;;;;;;;1.77;100.00;95092.69;5084402;28;20337;-57
2024/01/17 03:28:21;;;;;;;14.90;12.40;;;;;;;1.76;100.00;95088.41;5103785;28;20523;-58
2024/01/17 03:30:47;;;;;;;15.53;12.13;;;;;;;1.74;100.00;95093.75;5098945;28;20555;-57
2024/01/17 03:33:15;;;;;;;16.10;12.43;;;;;;;1.70;100.00;95092.34;5094203;28;20646;-58
2024/01/17 03:35:45;;;;;;;15.37;12.30;;;;;;;1.72;100.00;95087.84;5104143;28;20215;-57
2024/01/17 03:38:11;;;;;;;14.17;11.90;;;;;;;1.70;100.00;95070.69;5099057;28;20279;-58
2024/01/17 03:40:38;;;;;;;13.13;11.67;;;;;;;1.74;100.00;95056.44;5103745;28;20220;-57
2024/01/17 03:43:05;;;;;;;13.87;11.77;;;;;;;1.74;100.00;95052.06;5103404;28;20205;-57
2024/01/17 03:45:31;;;;;;;15.37;12.03;;;;;;;1.76;100.00;95042.34;5101980;28;20225;-57
2024/01/17 03:47:58;;;;;;;17.23;12.00;;;;;;;1.85;100.00;95036.34;5097098;28;20202;-58
2024/01/17 03:50:26;;;;;;;15.60;12.17;;;;;;;1.89;100.00;95035.13;5106949;28;20205;-58
2024/01/17 03:52:52;;;;;;;14.07;12.43;;;;;;;1.88;100.00;95043.91;5119310;28;20221;-56
2024/01/17 03:55:20;;;;;;;13.53;11.80;;;;;;;1.92;100.00;95034.03;5118007;28;20201;-58
2024/01/17 03:57:47;;;;;;;13.80;11.87;;;;;;;1.93;100.00;95036.53;5118528;28;20222;-58
2024/01/17 04:00:16;;;;;;;14.73;12.70;;;;;;;1.95;100.00;95028.56;5122851;28;20228;-57
2024/01/17 04:02:42;;;;;;;14.80;12.03;;;;;;;1.98;100.00;95021.31;5104612;28;20205;-58
2024/01/17 04:05:09;;;;;;;13.00;11.60;;;;;;;1.98;100.00;95018.72;5097434;28;20221;-57
2024/01/17 04:07:37;;;;;;;12.83;10.77;;;;;;;2.02;100.00;95015.88;5091163;28;20216;-58
2024/01/17 04:10:06;;;;;;;13.40;11.93;;;;;;;2.02;100.00;95014.06;5091821;28;20209;-58
2024/01/17 04:12:32;;;;;;;13.57;11.40;;;;;;;2.02;100.00;95015.88;5102918;28;20201;-58
2024/01/17 04:14:59;;;;;;;13.60;11.30;;;;;;;2.04;100.00;95012.16;5097221;28;20725;-58
2024/01/17 04:17:26;;;;;;;14.30;11.53;;;;;;;1.99;100.00;95001.28;5101834;28;20652;-58
2024/01/17 04:19:52;;;;;;;12.60;11.20;;;;;;;2.03;100.00;95002.69;5102529;28;20205;-58
2024/01/17 04:22:19;;;;;;;12.67;11.10;;;;;;;2.02;100.00;95000.22;5093688;28;20212;-58
2024/01/17 04:24:48;;;;;;;13.53;11.50;;;;;;;2.04;100.00;95001.72;5099845;28;20236;-58
2024/01/17 04:27:16;;;;;;;13.27;11.80;;;;;;;2.06;100.00;94988.53;5113302;28;20217;-58
2024/01/17 04:29:43;;;;;;;13.27;11.27;;;;;;;2.05;100.00;94986.91;5106862;28;20212;-58
2024/01/17 04:32:09;;;;;;;12.90;11.50;;;;;;;2.02;100.00;94982.78;5103038;28;20274;-58
2024/01/17 04:34:36;;;;;;;14.20;11.20;;;;;;;2.02;100.00;94966.34;5101903;28;20274;-58
2024/01/17 04:37:03;;;;;;;14.53;11.80;;;;;;;1.96;100.00;94959.84;5097925;28;20193;-58
2024/01/17 04:39:29;;;;;;;13.00;11.73;;;;;;;1.94;100.00;94969.59;5090682;28;20211;-57
2024/01/17 04:41:58;;;;;;;13.37;12.00;;;;;;;1.86;100.00;94957.22;5099203;28;20549;-57
2024/01/17 04:44:30;;;;;;;12.80;11.43;;;;;;;1.84;100.00;94940.06;5101249;28;20506;-57
2024/01/17 04:46:57;;;;;;;12.77;11.47;;;;;;;1.91;100.00;94931.56;5102035;28;20517;-58
2024/01/17 04:49:25;;;;;;;12.23;10.97;;;;;;;1.95;100.00;94935.56;5096067;28;20194;-57
2024/01/17 04:51:52;;;;;;;12.50;11.20;;;;;;;1.99;100.00;94929.13;5091031;28;20213;-58
2024/01/17 04:54:19;;;;;;;12.30;10.97;;;;;;;2.01;100.00;94923.81;5096419;28;20532;-58
2024/01/17 04:56:45;;;;;;;13.93;11.50;;;;;;;2.01;100.00;94926.41;5098374;28;20201;-57
2024/01/17 04:59:13;;;;;;;16.10;11.53;;;;;;;2.02;100.00;94929.84;5101372;28;20622;-57
2024/01/17 05:01:40;;;;;;;12.80;11.20;;;;;;;2.07;100.00;94922.44;5098109;28;20539;-57
2024/01/17 05:04:07;;;;;;;12.80;11.20;;;;;;;2.13;100.00;94929.72;5101477;28;20214;-58
2024/01/17 05:06:34;;;;;;;12.40;11.10;;;;;;;2.15;100.00;94917.38;5081999;28;20350;-58
2024/01/17 05:09:03;;;;;;;12.23;10.80;;;;;;;2.06;100.00;94923.38;5082823;28;20208;-58
2024/01/17 05:11:30;;;;;;;14.00;10.67;;;;;;;2.16;100.00;94921.66;5083815;28;20214;-57
2024/01/17 05:13:56;;;;;;;13.03;10.43;;;;;;;2.11;100.00;94913.38;5086050;28;20207;-57
2024/01/17 05:16:24;;;;;;;12.10;10.87;;;;;;;2.07;100.00;94907.63;5085324;28;20212;-57
2024/01/17 05:18:51;;;;;;;11.23;10.13;;;;;;;2.13;100.00;94906.25;5085260;28;21335;-57
2024/01/17 05:21:17;;;;;;;13.20;10.87;;;;;;;2.15;100.00;94909.56;5085401;28;20210;-57
2024/01/17 05:23:44;;;;;;;11.73;10.17;;;;;;;2.19;100.00;94909.16;5085845;28;20202;-57
2024/01/17 05:26:10;;;;;;;11.13;10.03;;;;;;;2.25;100.00;94894.75;5084943;28;20224;-58
2024/01/17 05:28:37;;;;;;;11.57;10.37;;;;;;;2.27;100.00;94888.44;5084488;28;20642;-57
2024/01/17 05:31:04;;;;;;;13.07;11.30;;;;;;;2.23;100.00;94894.88;5084462;28;20211;-57
2024/01/17 05:33:32;;;;;;;13.47;11.50;;;;;;;2.30;100.00;94897.78;5085105;28;20561;-56
2024/01/17 05:35:58;;;;;;;11.70;9.93;;;;;;;2.28;100.00;94889.25;5084817;28;20202;-57
2024/01/17 05:38:25;;;;;;;10.53;9.20;;;;;;;2.28;100.00;94884.88;5085442;28;20206;-57
2024/01/17 05:40:52;;;;;;;11.87;9.83;;;;;;;2.30;100.00;94874.31;5085022;28;20593;-57
2024/01/17 05:43:19;;;;;;;12.00;9.43;;;;;;;2.32;100.00;94886.25;5084439;28;20197;-57
2024/01/17 05:45:45;;;;;;;10.73;9.50;;;;;;;2.31;100.00;94874.16;5084610;28;20229;-58
2024/01/17 05:48:13;;;;;;;9.93;9.03;;;;;;;2.35;100.00;94875.53;5084595;28;20202;-58
2024/01/17 05:50:41;;;;;;;9.77;8.77;;;;;;;2.34;100.00;94878.28;5083891;28;20921;-58
2024/01/17 05:53:08;;;;;;;10.63;9.53;;;;;;;2.34;100.00;94862.63;5084791;28;20212;-57
2024/01/17 05:55:34;;;;;;;10.33;9.30;;;;;;;2.35;100.00;94861.66;5083774;28;20197;-57
2024/01/17 05:58:01;;;;;;;10.23;9.23;;;;;;;2.42;100.00;94854.94;5084298;28;20206;-58
2024/01/17 06:00:28;;;;;;;9.67;8.67;;;;;;;2.39;100.00;94853.44;5083948;28;20289;-58
2024/01/17 06:02:55;;;;;;;9.23;8.23;;;;;;;2.37;100.00;94844.13;5083265;28;20201;-60
2024/01/17 06:05:22;;;;;;;9.87;8.87;;;;;;;2.39;100.00;94842.19;5083996;28;20892;-58
2024/01/17 06:07:50;;;;;;;9.20;8.13;;;;;;;2.45;100.00;94854.66;5091612;28;20197;-58
2024/01/17 06:10:16;;;;;;;9.27;8.30;;;;;;;2.46;100.00;94830.25;5092392;28;20206;-56
2024/01/17 06:12:43;;;;;;;8.97;7.73;;;;;;;2.38;100.00;94822.28;5091978;28;20626;-58
2024/01/17 06:15:12;;;;;;;9.00;7.83;;;;;;;2.41;100.00;94833.25;5092624;28;20216;-58
2024/01/17 06:17:39;;;;;;;8.23;7.43;;;;;;;2.42;100.00;94821.03;5092570;28;20209;-58
2024/01/17 06:20:09;;;;;;;8.97;7.93;;;;;;;2.35;100.00;94809.50;5092779;28;20202;-58
2024/01/17 06:22:36;;;;;;;8.60;7.80;;;;;;;2.44;100.00;94826.97;5087715;28;20279;-58
2024/01/17 06:25:05;;;;;;;8.13;7.33;;;;;;;2.44;100.00;94799.06;5093811;28;20197;-56
2024/01/17 06:27:32;;;;;;;8.23;7.53;;;;;;;2.48;100.00;94799.59;5094599;28;20267;-58
2024/01/17 06:29:58;;;;;;;8.07;7.27;;;;;;;2.57;100.00;94811.84;5092646;28;20205;-57
2024/01/17 06:32:25;;;;;;;8.87;7.37;;;;;;;2.58;100.00;94786.56;5093039;28;20546;-57
2024/01/17 06:34:51;;;;;;;8.10;6.70;;;;;;;2.45;100.00;94786.84;5096845;28;20201;-57
2024/01/17 06:37:18;;;;;;;8.10;7.30;;;;;;;2.52;100.00;94808.81;5101597;28;20205;-57
2024/01/17 06:39:45;;;;;;;9.03;7.57;;;;;;;2.41;100.00;94783.69;5095425;28;20198;-57
2024/01/17 06:42:16;;;;;;;8.00;7.20;;;;;;;2.39;100.00;94772.59;5094116;28;20209;-59
2024/01/17 06:44:43;;;;;;;7.70;6.87;;;;;;;2.50;100.00;94763.78;5092470;28;20206;-58
2024/01/17 06:47:10;;;;;;;8.80;7.13;;;;;;;2.52;100.00;94740.97;5093223;28;20249;-56
2024/01/17 06:49:38;;;;;;;8.23;7.37;;;;;;;2.49;100.00;94712.56;5092634;28;20294;-58
2024/01/17 06:52:06;;;;;;;7.80;5.80;;;;;;;2.51;100.00;94708.84;5092691;28;20202;-58
2024/01/17 06:54:32;;;;;;;6.40;5.43;;;;;;;2.57;100.00;94689.22;5092045;28;20518;-58
2024/01/17 06:56:59;;;;;;;5.47;4.77;;;;;;;2.65;100.00;94688.50;5092207;28;20202;-58
2024/01/17 06:59:27;;;;;;;7.37;4.80;;;;;;;2.76;100.00;94686.56;5091723;28;20193;-58
2024/01/17 07:01:54;;;;;;;6.67;5.30;;;;;;;2.82;100.00;94675.53;5091378;28;20209;-58
2024/01/17 07:04:21;;;;;;;7.40;5.00;;;;;;;2.89;100.00;94666.16;5092197;28;20616;-58
2024/01/17 07:06:48;;;;;;;5.73;5.20;;;;;;;2.87;100.00;94665.47;5099558;28;20646;-58
2024/01/17 07:09:15;;;;;;;6.50;5.43;;;;;;;2.90;100.00;94657.38;5102329;28;20534;-60
2024/01/17 07:11:42;;;;;;;5.83;5.30;;;;;;;2.87;100.00;94662.84;5102539;28;20280;-58
2024/01/17 07:14:08;;;;;;;6.13;5.63;;;;;;;2.88;100.00;94659.28;5102615;28;20232;-58
2024/01/17 07:16:36;;;;;;;6.37;5.87;;;;;;;2.89;100.00;94681.81;5102063;28;20288;-57
2024/01/17 07:19:03;;;;;;;6.90;5.53;;;;;;;2.98;100.00;94677.50;5103799;28;20223;-58
2024/01/17 07:21:30;;;;;;;5.60;5.07;;;;;;;2.98;100.00;94682.72;5102030;28;20206;-58
2024/01/17 07:23:57;;;;;;;5.33;4.70;;;;;;;2.94;100.00;94687.41;5103260;28;20584;-58
2024/01/17 07:26:24;;;;;;;5.73;5.23;;;;;;;2.94;100.00;94690.00;5102932;28;20356;-58
2024/01/17 07:28:50;;;;;;;6.40;5.37;;;;;;;2.96;100.00;94703.75;5103451;28;20232;-59
2024/01/17 07:31:17;;;;;;;5.20;4.70;;;;;;;2.99;100.00;94703.47;5103094;28;20208;-58
2024/01/17 07:33:45;;;;;;;6.03;5.47;;;;;;;3.04;100.00;94694.38;5103178;28;20213;-58
2024/01/17 07:36:12;;;;;;;5.97;5.47;;;;;;;3.06;100.00;94695.06;5105143;28;20216;-58
2024/01/17 07:38:38;;;;;;;6.20;5.60;;;;;;;3.07;100.00;94689.69;5106286;28;20202;-57
2024/01/17 07:41:05;;;;;;;6.33;5.83;;;;;;;3.10;100.00;94683.34;5107511;28;20361;-58
2024/01/17 07:43:33;;;;;;;6.50;5.77;;;;;;;2.99;100.00;94674.75;5119002;28;20269;-58
2024/01/17 07:46:00;;;;;;;5.70;5.20;;;;;;;2.97;100.00;94658.44;5112790;28;20228;-58
2024/01/17 07:48:27;;;;;;;6.50;5.77;;;;;;;2.97;100.00;94658.44;5110237;28;20288;-57
2024/01/17 07:50:56;;;;;;;6.60;6.00;;;;;;;3.02;100.00;94665.81;5115181;28;20289;-58
2024/01/17 07:53:22;;;;;;;7.63;6.83;;;;;;;3.07;100.00;94654.94;5116824;28;20255;-57
2024/01/17 07:55:49;;;;;;;6.33;5.70;;;;;;;3.08;100.00;94643.53;5115019;28;20197;-57
2024/01/17 07:58:16;;;;;;;7.90;5.77;;;;;;;3.10;100.00;94649.41;5116313;28;20210;-56
2024/01/17 08:00:43;;;;;;;7.23;6.03;;;;;;;3.12;100.00;94644.88;5116158;28;20205;-57
2024/01/17 08:03:10;;;;;;;9.53;5.63;;;;;;;3.14;100.00;94653.38;5115845;28;20206;-58
2024/01/17 08:05:37;;;;;;;7.20;5.80;;;;;;;3.28;100.00;94642.44;5117056;28;20236;-58
2024/01/17 08:08:06;;;;;;;7.00;5.27;;;;;;;3.22;100.00;94645.63;5119552;28;20200;-58
2024/01/17 08:10:32;;;;;;;6.20;5.60;;;;;;;3.18;100.00;94645.09;5120619;28;20194;-57
2024/01/17 08:12:59;;;;;;;5.87;5.37;;;;;;;3.08;100.00;94638.31;5115556;28;20211;-58
2024/01/17 08:15:26;;;;;;;6.73;5.50;;;;;;;3.12;100.00;94644.88;5103780;28;20198;-58
2024/01/17 08:17:52;;;;;;;5.87;5.37;;;;;;;3.10;100.00;94629.34;5101961;28;20208;-59
2024/01/17 08:20:19;;;;;;;5.90;5.33;;;;;;;3.15;100.00;94634.13;5103024;28;20292;-58
2024/01/17 08:22:45;;;;;;;5.97;5.43;;;;;;;3.17;100.00;94632.19;5102442;28;20210;-58
2024/01/17 08:25:14;;;;;;;6.43;5.90;;;;;;;3.17;100.00;94619.97;5102487;28;20205;-57
2024/01/17 08:27:40;;;;;;;6.83;6.10;;;;;;;3.17;100.00;94617.34;5102211;28;20217;-58
2024/01/17 08:30:09;;;;;;;6.13;5.63;;;;;;;3.22;100.00;94624.75;5106208;28;20712;-57
2024/01/17 08:32:36;;;;;;;6.70;5.47;;;;;;;3.28;100.00;94624.16;5108773;28;20197;-57
2024/01/17 08:35:03;;;;;;;6.10;5.60;;;;;;;3.38;100.00;94640.56;5108632;28;20193;-58
2024/01/17 08:37:29;;;;;;;6.20;5.60;;;;;;;3.27;100.00;94622.50;5109056;27;20297;-58
2024/01/17 08:39:56;;;;;;;6.10;5.60;;;;;;;3.29;100.00;94621.41;5108757;28;20201;-58
2024/01/17 08:42:24;;;;;;;6.20;5.70;;;;;;;3.26;100.00;94611.22;5109148;28;20216;-57
2024/01/17 08:44:50;;;;;;;7.20;5.63;;;;;;;3.29;100.00;94617.97;5118503;28;20327;-58
2024/01/17 08:47:17;;;;;;;6.03;5.53;;;;;;;3.33;100.00;94616.69;5118514;27;20316;-58
2024/01/17 08:49:44;;;;;;;7.70;5.80;;;;;;;3.31;100.00;94610.78;5111279;27;20225;-58
2024/01/17 08:52:10;;;;;;;7.50;5.90;;;;;;;3.30;100.00;94615.19;5112103;27;20301;-58
2024/01/17 08:54:37;;;;;;;5.93;5.43;;;;;;;3.41;100.00;94614.13;5111071;28;20194;-57
2024/01/17 08:57:04;;;;;;;6.97;5.80;;;;;;;3.40;100.00;94621.16;5108615;27;20197;-58
2024/01/17 08:59:35;;;;;;;7.30;6.60;;;;;;;3.45;100.00;94631.16;5109539;28;20288;-58
2024/01/17 09:02:02;;;;;;;6.73;6.17;;;;;;;3.44;100.00;94611.22;5110105;28;20216;-57
2024/01/17 09:04:29;;;;;;;7.03;6.43;;;;;;;3.42;100.00;94594.91;5108500;28;20201;-58
2024/01/17 09:06:56;;;;;;;9.57;6.47;;;;;;;3.47;100.00;94593.47;5107483;28;20549;-58
2024/01/17 09:09:25;;;;;;;7.87;6.60;;;;;;;3.54;100.00;94577.19;5109304;27;20216;-58
2024/01/17 09:11:53;;;;;;;9.03;7.30;;;;;;;3.47;100.00;94572.56;5109935;28;20206;-58
2024/01/17 09:14:21;;;;;;;6.97;6.27;;;;;;;3.54;100.00;94566.75;5113375;28;20269;-58
2024/01/17 09:16:49;;;;;;;7.70;7.00;;;;;;;3.47;100.00;94556.09;5107249;28;20206;-57
2024/01/17 09:19:16;;;;;;;7.43;6.50;;;;;;;3.58;100.00;94552.41;5109091;27;20311;-58
2024/01/17 09:21:42;;;;;;;14.43;7.43;;;;;;;3.57;100.00;94564.66;5107342;28;20219;-58
2024/01/17 09:24:09;;;;;;;8.50;6.80;;;;;;;3.64;100.00;94562.25;5106453;28;20204;-58
2024/01/17 09:26:36;;;;;;;7.00;6.40;;;;;;;3.69;100.00;94568.66;5107146;28;20225;-58
2024/01/17 09:29:03;;;;;;;7.00;6.30;;;;;;;3.70;100.00;94556.41;5111824;27;20215;-57
2024/01/17 09:31:29;;;;;;;7.13;6.47;;;;;;;3.68;100.00;94553.97;5114094;28;20208;-58
2024/01/17 09:33:57;;;;;;;7.17;6.37;;;;;;;3.75;100.00;94544.53;5115490;28;20216;-58
2024/01/17 09:36:24;;;;;;;7.57;6.80;;;;;;;3.77;100.00;94541.75;5117446;28;20300;-57
2024/01/17 09:38:52;;;;;;;10.00;7.07;;;;;;;3.73;100.00;94532.56;5116432;28;20285;-58
2024/01/17 09:41:19;;;;;;;7.37;6.60;;;;;;;3.79;100.00;94535.41;5116105;28;20220;-57
2024/01/17 09:43:46;;;;;;;7.70;6.97;;;;;;;3.86;100.00;94539.03;5110634;28;20200;-58
2024/01/17 09:46:13;;;;;;;7.80;6.57;;;;;;;3.88;100.00;94542.34;5105287;28;20205;-57
2024/01/17 09:48:40;;;;;;;7.47;6.77;;;;;;;3.92;100.00;94537.63;5105297;28;20300;-58
2024/01/17 09:51:08;;;;;;;7.50;6.80;;;;;;;3.98;100.00;94537.81;5103146;28;21289;-57
2024/01/17 09:53:35;;;;;;;7.03;6.40;;;;;;;4.01;100.00;94550.56;5103139;28;20217;-58
2024/01/17 09:56:03;;;;;;;7.23;6.47;;;;;;;4.06;100.00;94541.47;5103618;28;20204;-58
2024/01/17 09:58:32;;;;;;;8.13;6.43;;;;;;;4.12;100.00;94543.44;5104270;28;20198;-58
2024/01/17 10:01:00;;;;;;;7.37;6.67;;;;;;;4.12;100.00;94536.41;5085907;28;20210;-58
2024/01/17 10:03:28;;;;;;;9.30;7.17;;;;;;;4.20;100.00;94533.03;5104475;28;20220;-58
2024/01/17 10:05:56;;;;;;;6.80;6.20;;;;;;;4.15;100.00;94520.41;5104511;28;20269;-56
2024/01/17 10:08:24;;;;;;;8.73;7.03;;;;;;;4.20;100.00;94528.63;5103612;28;20229;-57
2024/01/17 10:10:51;;;;;;;7.80;6.83;;;;;;;4.26;100.00;94521.94;5104336;28;20341;-58
2024/01/17 10:13:17;;;;;;;7.20;6.50;;;;;;;4.27;100.00;94513.13;5104617;28;20282;-58
2024/01/17 10:15:46;;;;;;;8.07;7.27;;;;;;;4.26;100.00;94504.44;5103983;28;20212;-56
2024/01/17 10:18:12;;;;;;;8.27;7.27;;;;;;;4.38;100.00;94518.91;5104001;28;20208;-58
2024/01/17 10:20:39;;;;;;;7.37;6.67;;;;;;;4.42;100.00;94511.56;5104407;28;20228;-58
2024/01/17 10:23:07;;;;;;;8.53;7.70;;;;;;;4.42;100.00;94493.25;5103757;28;20202;-58
2024/01/17 10:25:39;;;;;;;9.53;7.10;;;;;;;4.43;100.00;94487.00;5103889;28;20301;-60
2024/01/17 10:28:06;;;;;;;8.37;6.57;;;;;;;4.53;100.00;94482.50;5104290;27;20209;-58
2024/01/17 10:30:33;;;;;;;7.70;7.10;;;;;;;4.53;100.00;94477.25;5105847;28;20209;-58
2024/01/17 10:32:59;;;;;;;10.50;7.07;;;;;;;4.60;100.00;94483.50;5109047;28;20535;-58
2024/01/17 10:35:26;;;;;;;8.83;7.60;;;;;;;4.66;100.00;94482.84;5108947;28;20237;-58
2024/01/17 10:37:54;;;;;;;7.17;6.47;;;;;;;4.67;100.00;94481.06;5112686;27;20201;-58
2024/01/17 10:40:20;;;;;;;6.27;5.67;;;;;;;4.69;100.00;94476.47;5109331;28;20292;-58
2024/01/17 10:43:04;;;;;;;5.40;4.90;;;;;;;4.79;100.00;94485.81;5103470;28;20686;-58
2024/01/17 10:45:34;;;;;;;4.13;3.60;;;;;;;4.91;100.00;94481.91;5104510;28;20208;-58
2024/01/17 10:48:01;;;;;;;6.73;4.00;;;;;;;4.92;100.00;94478.28;5103994;28;20226;-58
2024/01/17 10:50:28;;;;;;;4.07;3.77;;;;;;;4.99;100.00;94463.56;5102705;28;20205;-58
2024/01/17 10:52:58;;;;;;;3.73;3.43;;;;;;;5.10;100.00;94456.41;5105445;28;20201;-58
2024/01/17 10:55:28;;;;;;;3.43;3.13;;;;;;;5.18;100.00;94424.94;5109202;28;20273;-57
2024/01/17 10:57:58;;;;;;;2.70;2.50;;;;;;;5.41;100.00;94444.28;5110422;28;20256;-57
2024/01/17 11:00:31;;;;;;;2.90;2.70;;;;;;;5.52;100.00;94441.31;5104317;28;20213;-57
2024/01/17 11:03:00;;;;;;;2.80;2.60;;;;;;;5.66;100.00;94445.88;5103254;28;20201;-58
2024/01/17 11:05:30;;;;;;;2.57;2.37;;;;;;;5.80;100.00;94436.50;5103410;28;20268;-56
2024/01/17 11:07:56;;;;;;;3.20;3.00;;;;;;;5.90;100.00;94429.28;5103031;28;20291;-57
2024/01/17 11:10:24;;;;;;;3.50;3.13;;;;;;;6.04;100.00;94419.91;5103061;28;20281;-57
2024/01/17 11:12:51;;;;;;;3.40;3.10;;;;;;;6.08;100.00;94418.56;5102952;28;20202;-58
2024/01/17 11:15:19;;;;;;;3.10;2.90;;;;;;;6.14;100.00;94410.00;5102453;28;20213;-57
2024/01/17 11:17:46;;;;;;;3.10;2.90;;;;;;;6.27;100.00;94412.94;5102002;28;20411;-58
2024/01/17 11:20:14;;;;;;;3.77;3.20;;;;;;;6.36;100.00;94396.97;5102337;28;20702;-57
2024/01/17 11:22:41;;;;;;;3.00;2.80;;;;;;;6.42;100.00;94400.69;5103719;28;20231;-58
2024/01/17 11:25:16;;;;;;;2.60;2.43;;;;;;;6.57;100.00;94403.41;5103414;28;20212;-58
2024/01/17 11:27:48;;;;;;;3.20;2.80;;;;;;;6.64;100.00;94373.66;5103138;28;20217;-58